Terminal Aerodrome Forecast
Issued by NWS

Home | Current Version | Previous Version | Text Only | Print | Product List | Glossary On
Versions: 1 2 3 4 5 6 7 8 9 10 11 12 13 14 15 16
422
FTUS42 TJSJ 301120
TAFISX
TAF
TISX 301120Z 3012/0112 05008KT P6SM VCSH FEW025
     FM301300 10015G25KT P6SM VCSH FEW025 SCT050
     FM302300 08010KT P6SM VCSH SCT025=

USA.gov is the U.S. government's official web portal to all federal, state and local government web resources and services.